Pagina principale
METAR-TAF:

METAR-TAF

Aeroporti :

Zeltweg, Austria

Aerodromo Hinterstoisser-Zeltweg

latitudine: 47-12N, longitudine: 014-45E, altezza: 677 m

Osservazione

Il bollettino è stato emesso 20 minuti fa, alle 07:50 UTC
Vento 1 kt da direzioni variabili
Temperature 18°C
Umidità 49%
Pressione 1023 hPa

METAR: LOXZ 270750Z VRB01KT 50KM FEW060CU 18/07 Q1023 NOSIG

Ora: 10:10 (08:10 UTC)

Previsione

Il bollettino è stato emesso 2 ore e 55 minuti fa, alle 05:15 UTC
Previsione valida dal 27 alle 06 UTC al 27 alle 15 UTC
Vento 3 kt da direzioni variabili
Visibilità 10 km o più
Poco nuvoloso ad un'altezza di 6000 ft
Temporaneamente
dal 27 alle 11 UTC al 27 alle 15 UTC
Vento 10 kt da est

TAF: LOXZ 270515Z 2706/2715 VRB03KT 9999 FEW060 TEMPO 2711/2715 09010KT

Osservazioni e previsioni meteorologiche di più di 4000 aeroporti (messaggi METAR e TAF).

Le stazioni disponibili sono rappresentate dai dischi gialli e rossi sulla carta.

Puntare il mouse per vedere il nome della stazione.

Clicca sopra per visualizzare le osservazioni e previsioni meteorologiche.

Per cambiare la mappa : fare clic sui pulsanti verdi con una croce nera per ingrandire, il pulsante verde con un trattino per diminuire, o sulla freccia verde per le mappe adiacenti.


METAR-TAF: